Time;durP1;ratioP1;P1;durP2;ratioP2;P2;SDS_P1;SDS_P2;PMS_P1;PMS_P2;Temp;Humidity;BMP_temperature;BMP_pressure;BME280_temperature;BME280_humidity;BME280_pressure;Samples;Min_cycle;Max_cycle;Signal;HPM_P1;HPM_P2
2024/03/01 00:00:30;;;;;;;31.60;17.75;;;231.00;2252.80;;;;;;5064318;28;20068;-75
2024/03/01 00:02:55;;;;;;;32.00;17.90;;;230.90;2252.80;;;;;;5082068;28;20482;-75
2024/03/01 00:05:22;;;;;;;32.20;17.50;;;231.00;2252.80;;;;;;5075067;28;20458;-74
2024/03/01 00:07:48;;;;;;;31.13;17.67;;;231.00;2252.80;;;;;;5068275;28;20132;-75
2024/03/01 00:10:15;;;;;;;35.28;17.75;;;231.00;2252.80;;;;;;5075524;28;20081;-75
2024/03/01 00:12:44;;;;;;;32.08;17.33;;;231.00;2252.80;;;;;;5064105;28;20038;-74
2024/03/01 00:15:10;;;;;;;34.15;18.20;;;256.10;2252.80;;;;;;5082478;28;20558;-75
2024/03/01 00:17:39;;;;;;;33.05;17.83;;;230.90;2252.80;;;;;;5075085;28;20052;-73
2024/03/01 00:20:09;;;;;;;32.60;17.70;;;230.90;2252.80;;;;;;5073996;28;20222;-74
2024/03/01 00:22:38;;;;;;;33.33;17.60;;;230.90;2252.80;;;;;;5075175;28;20020;-74
2024/03/01 00:25:10;;;;;;;36.03;18.05;;;256.30;2252.80;;;;;;5068115;28;20055;-74
2024/03/01 00:27:35;;;;;;;32.08;18.02;;;230.90;2252.80;;;;;;5055331;28;20048;-74
2024/03/01 00:30:01;;;;;;;31.85;17.73;;;230.90;2252.80;;;;;;5055152;28;20051;-75
2024/03/01 00:32:27;;;;;;;29.77;17.65;;;231.00;2252.80;;;;;;5055305;28;20488;-75
2024/03/01 00:34:56;;;;;;;35.28;18.23;;;231.00;2252.80;;;;;;5054664;28;20032;-74
2024/03/01 00:37:25;;;;;;;33.63;18.42;;;231.00;2252.80;;;;;;5054642;28;20086;-73
2024/03/01 00:39:51;;;;;;;32.75;18.38;;;231.10;2252.80;;;;;;5055069;28;20035;-74
2024/03/01 00:42:16;;;;;;;34.15;17.33;;;231.20;2252.80;;;;;;5067608;28;20033;-75
2024/03/01 00:44:42;;;;;;;32.70;17.60;;;231.20;2252.80;;;;;;5072284;28;20021;-74
2024/03/01 00:47:08;;;;;;;35.63;17.90;;;256.00;2252.80;;;;;;5074729;28;20031;-74
2024/03/01 00:49:34;;;;;;;32.05;17.15;;;231.20;2252.80;;;;;;5074836;28;20349;-74
2024/03/01 00:52:00;;;;;;;38.90;18.02;;;256.00;2252.80;;;;;;5074871;28;20027;-74
2024/03/01 00:54:25;;;;;;;33.65;18.27;;;256.10;2252.80;;;;;;5074588;28;20031;-72
2024/03/01 00:56:51;;;;;;;34.85;18.30;;;256.10;2252.80;;;;;;5073631;28;20035;-75
2024/03/01 00:59:22;;;;;;;31.67;18.02;;;256.10;2252.80;;;;;;5066319;28;20484;-74
2024/03/01 01:01:51;;;;;;;31.40;18.45;;;256.10;2252.80;;;;;;5081246;28;20054;-74
2024/03/01 01:04:17;;;;;;;36.00;18.48;;;256.20;2252.80;;;;;;5074544;28;20021;-74
2024/03/01 01:06:42;;;;;;;33.58;16.45;;;256.20;2252.80;;;;;;5074398;28;20352;-73
2024/03/01 01:09:08;;;;;;;34.65;17.27;;;256.20;2252.80;;;;;;5073566;28;20025;-74
2024/03/01 01:11:37;;;;;;;39.40;18.92;;;256.30;2252.80;;;;;;5074390;28;20044;-74
2024/03/01 01:14:03;;;;;;;32.13;16.70;;;256.30;2252.80;;;;;;5081224;28;20492;-74
2024/03/01 01:16:28;;;;;;;38.03;18.13;;;256.30;2252.80;;;;;;5093901;28;20107;-74
2024/03/01 01:18:55;;;;;;;36.13;17.92;;;256.30;2252.80;;;;;;5111997;28;20023;-73
2024/03/01 01:21:21;;;;;;;34.42;18.95;;;256.30;2252.80;;;;;;5111019;28;20083;-74
2024/03/01 01:23:47;;;;;;;32.65;18.35;;;256.30;2252.80;;;;;;5075560;28;20055;-74
2024/03/01 01:26:13;;;;;;;34.38;17.92;;;256.30;2252.80;;;;;;5094353;28;20115;-74
2024/03/01 01:28:38;;;;;;;33.05;18.80;;;256.40;2252.80;;;;;;5094118;28;20062;-74
2024/03/01 01:31:07;;;;;;;31.63;18.88;;;256.40;2252.80;;;;;;5093293;28;20032;-75
2024/03/01 01:33:33;;;;;;;34.35;18.95;;;256.40;2252.80;;;;;;5084692;28;20140;-73
2024/03/01 01:35:59;;;;;;;36.00;17.75;;;256.40;2252.80;;;;;;5075454;28;20805;-74
2024/03/01 01:38:25;;;;;;;36.47;20.15;;;256.40;2252.80;;;;;;5094224;28;20085;-74
2024/03/01 01:40:53;;;;;;;33.97;18.45;;;256.40;2252.80;;;;;;5092879;28;20379;-74
2024/03/01 01:43:19;;;;;;;36.17;18.75;;;256.40;2252.80;;;;;;5094008;28;20076;-74
2024/03/01 01:45:45;;;;;;;36.95;18.48;;;256.40;2252.80;;;;;;5094066;28;20060;-75
2024/03/01 01:48:11;;;;;;;32.13;19.25;;;256.40;2252.80;;;;;;5092170;28;20027;-74
2024/03/01 01:50:37;;;;;;;33.17;18.88;;;256.40;2252.80;;;;;;5091974;28;20020;-73
2024/03/01 01:53:03;;;;;;;38.83;19.27;;;256.40;2252.80;;;;;;5085621;28;20145;-74
2024/03/01 01:55:29;;;;;;;36.05;19.20;;;256.40;2252.80;;;;;;5093732;28;20489;-74
2024/03/01 01:57:57;;;;;;;33.10;19.40;;;256.40;2252.80;;;;;;5094009;28;20463;-74
2024/03/01 02:00:22;;;;;;;34.55;19.05;;;256.30;2252.80;;;;;;5074863;28;20399;-73
2024/03/01 02:02:50;;;;;;;34.75;18.50;;;256.30;2252.80;;;;;;5093141;28;20031;-74
2024/03/01 02:05:18;;;;;;;35.25;20.13;;;256.30;2252.80;;;;;;5093714;28;20157;-74
2024/03/01 02:07:47;;;;;;;33.35;19.42;;;231.20;2252.80;;;;;;5094315;28;20027;-74
2024/03/01 02:10:19;;;;;;;36.67;20.33;;;256.10;2252.80;;;;;;5092088;28;20024;-75
2024/03/01 02:12:57;;;;;;;35.45;19.58;;;256.10;2252.80;;;;;;5093128;28;20032;-74
2024/03/01 02:15:27;;;;;;;33.00;18.77;;;256.00;2252.80;;;;;;5093622;28;20030;-75
2024/03/01 02:17:54;;;;;;;32.08;18.48;;;231.30;2252.80;;;;;;5103171;28;20046;-74
2024/03/01 02:20:21;;;;;;;34.53;19.95;;;256.00;2252.80;;;;;;5113955;28;20106;-74
2024/03/01 02:22:56;;;;;;;36.40;19.65;;;231.30;2252.80;;;;;;5097795;28;20055;-75
2024/03/01 02:25:22;;;;;;;32.50;19.45;;;231.30;2252.80;;;;;;5092343;28;20020;-74
2024/03/01 02:27:48;;;;;;;37.17;19.52;;;231.30;2252.80;;;;;;5091375;28;20036;-75
2024/03/01 02:30:15;;;;;;;43.40;21.05;;;231.00;2252.80;;;;;;5093314;28;20134;-74
2024/03/01 02:32:41;;;;;;;42.08;21.52;;;231.30;2252.80;;;;;;5093203;28;20863;-75
2024/03/01 02:35:07;;;;;;;41.15;20.10;;;256.00;2252.80;;;;;;5093750;28;20044;-75
2024/03/01 02:37:34;;;;;;;37.00;21.20;;;256.00;2252.80;;;;;;5093709;28;20028;-74
2024/03/01 02:39:59;;;;;;;40.17;21.40;;;256.00;2252.80;;;;;;5093025;28;20028;-75
2024/03/01 02:42:25;;;;;;;39.38;21.40;;;256.00;2252.80;;;;;;5088027;28;20445;-73
2024/03/01 02:44:54;;;;;;;41.17;22.85;;;231.30;2252.80;;;;;;5083892;28;20107;-73
2024/03/01 02:47:19;;;;;;;41.20;23.40;;;231.30;2252.80;;;;;;5092984;28;20103;-75
2024/03/01 02:49:45;;;;;;;43.38;22.02;;;231.20;2252.80;;;;;;5092951;28;20123;-75
2024/03/01 02:52:11;;;;;;;40.80;22.00;;;231.20;2252.80;;;;;;5093589;28;20028;-74
2024/03/01 02:54:37;;;;;;;39.35;21.38;;;231.20;2252.80;;;;;;5093638;28;20025;-74
2024/03/01 02:57:03;;;;;;;41.65;21.75;;;231.20;2252.80;;;;;;5092950;28;20028;-74
2024/03/01 02:59:30;;;;;;;41.38;22.45;;;231.20;2252.80;;;;;;5093389;28;20462;-74
2024/03/01 03:01:55;;;;;;;43.00;21.58;;;231.20;2252.80;;;;;;5064325;28;20394;-74
2024/03/01 03:04:21;;;;;;;37.72;20.92;;;231.20;2252.80;;;;;;5073340;28;20103;-74
2024/03/01 03:06:47;;;;;;;36.53;21.25;;;231.20;2252.80;;;;;;5072551;28;20024;-74
2024/03/01 03:09:15;;;;;;;40.42;22.02;;;231.30;2252.80;;;;;;5073074;28;20418;-75
2024/03/01 03:11:41;;;;;;;38.28;20.17;;;256.00;2252.80;;;;;;5072934;28;20021;-75
2024/03/01 03:14:10;;;;;;;38.97;20.33;;;256.00;2252.80;;;;;;5072510;28;20019;-74
2024/03/01 03:16:36;;;;;;;35.55;19.50;;;256.10;2252.80;;;;;;5072186;28;20040;-74
2024/03/01 03:19:04;;;;;;;33.92;19.40;;;256.20;2252.80;;;;;;5083236;28;20025;-74
2024/03/01 03:21:30;;;;;;;33.13;19.10;;;256.20;2252.80;;;;;;5094049;28;20032;-75
2024/03/01 03:23:56;;;;;;;35.78;19.23;;;256.30;2252.80;;;;;;5096429;28;20036;-74
2024/03/01 03:26:22;;;;;;;35.67;19.05;;;256.30;2252.80;;;;;;5096867;28;20016;-75
2024/03/01 03:28:48;;;;;;;38.30;19.70;;;256.30;2252.80;;;;;;5096791;28;20024;-74
2024/03/01 03:31:13;;;;;;;36.40;20.77;;;256.30;2252.80;;;;;;5093112;28;20111;-75
2024/03/01 03:33:42;;;;;;;34.33;19.33;;;256.30;2252.80;;;;;;5075884;28;20040;-74
2024/03/01 03:36:11;;;;;;;38.58;19.63;;;256.30;2252.80;;;;;;5076527;28;20017;-74
2024/03/01 03:38:37;;;;;;;36.50;20.77;;;256.30;2252.80;;;;;;5076476;28;20036;-75
2024/03/01 03:41:04;;;;;;;36.83;19.40;;;256.20;2252.80;;;;;;5076080;28;20036;-75
2024/03/01 03:43:33;;;;;;;39.92;20.08;;;256.20;2252.80;;;;;;5076147;28;20059;-74
2024/03/01 03:45:59;;;;;;;34.95;19.40;;;256.10;2252.80;;;;;;5076132;28;20036;-75
2024/03/01 03:48:25;;;;;;;35.58;19.10;;;256.10;2252.80;;;;;;5088357;28;20138;-74
2024/03/01 03:50:51;;;;;;;36.40;18.77;;;256.10;2252.80;;;;;;5092836;28;20538;-74
2024/03/01 03:53:19;;;;;;;29.63;17.70;;;256.10;2252.80;;;;;;5095789;28;20044;-74
2024/03/01 03:55:45;;;;;;;32.85;19.20;;;256.10;2252.80;;;;;;5096141;28;20032;-74
2024/03/01 03:58:10;;;;;;;33.05;19.52;;;256.00;2252.80;;;;;;5095581;28;20039;-74
2024/03/01 04:00:36;;;;;;;31.65;16.77;;;231.30;2252.80;;;;;;5095807;28;20122;-73
2024/03/01 04:03:03;;;;;;;31.27;16.85;;;231.20;2252.80;;;;;;5095830;28;20027;-74
2024/03/01 04:05:32;;;;;;;35.00;17.58;;;231.20;2252.80;;;;;;5093262;28;20016;-72
2024/03/01 04:07:57;;;;;;;34.33;18.70;;;231.10;2252.80;;;;;;5086192;28;20028;-73
2024/03/01 04:10:24;;;;;;;32.15;17.55;;;231.10;2252.80;;;;;;5096187;28;20024;-73
2024/03/01 04:12:50;;;;;;;35.38;19.23;;;231.00;2252.80;;;;;;5095814;28;20065;-74
2024/03/01 04:15:15;;;;;;;34.85;19.30;;;231.10;2252.80;;;;;;5095798;28;20420;-74
2024/03/01 04:17:41;;;;;;;34.15;17.73;;;231.00;2252.80;;;;;;5103338;28;20028;-74
2024/03/01 04:20:08;;;;;;;33.45;18.70;;;231.00;2252.80;;;;;;5115916;28;20032;-74
2024/03/01 04:22:36;;;;;;;36.95;19.80;;;231.00;2252.80;;;;;;5101387;28;20077;-74
2024/03/01 04:25:05;;;;;;;40.70;18.13;;;231.10;2252.80;;;;;;5090778;28;20048;-74
2024/03/01 04:27:31;;;;;;;34.22;19.05;;;231.10;2252.80;;;;;;5090049;28;20024;-74
2024/03/01 04:29:56;;;;;;;35.42;17.80;;;231.00;2252.80;;;;;;5076829;28;20081;-74
2024/03/01 04:32:24;;;;;;;34.85;18.75;;;231.00;2252.80;;;;;;5095397;28;20792;-74
2024/03/01 04:34:50;;;;;;;38.22;20.67;;;231.00;2252.80;;;;;;5095262;28;20032;-75
2024/03/01 04:37:16;;;;;;;36.28;18.95;;;231.00;2252.80;;;;;;5095008;28;20135;-73
2024/03/01 04:39:42;;;;;;;37.10;18.90;;;231.00;2252.80;;;;;;5095054;28;20479;-74
2024/03/01 04:42:08;;;;;;;38.05;19.73;;;231.00;2252.80;;;;;;5092298;28;20433;-73
2024/03/01 04:44:34;;;;;;;34.70;17.67;;;231.00;2252.80;;;;;;5089478;28;20114;-73
2024/03/01 04:47:03;;;;;;;34.08;17.95;;;231.00;2252.80;;;;;;5095201;28;20032;-74
2024/03/01 04:49:30;;;;;;;32.45;17.63;;;231.00;2252.80;;;;;;5094175;28;20027;-74
2024/03/01 04:51:55;;;;;;;34.72;18.45;;;231.00;2252.80;;;;;;5094698;28;20032;-74
2024/03/01 04:54:21;;;;;;;29.70;15.60;;;231.00;2252.80;;;;;;5077143;28;20084;-75
2024/03/01 04:56:47;;;;;;;33.38;17.13;;;231.00;2252.80;;;;;;5094753;28;20028;-73
2024/03/01 04:59:12;;;;;;;32.47;17.50;;;230.90;2252.80;;;;;;5094810;28;20024;-74
2024/03/01 05:01:41;;;;;;;30.17;17.35;;;230.90;2252.80;;;;;;5093546;28;20131;-74
2024/03/01 05:04:08;;;;;;;30.92;16.02;;;230.90;2252.80;;;;;;5087066;28;20121;-74
2024/03/01 05:06:36;;;;;;;32.10;17.92;;;230.80;2252.80;;;;;;5094448;28;20078;-74
2024/03/01 05:09:03;;;;;;;32.90;18.08;;;230.80;2252.80;;;;;;5094514;28;20095;-74
2024/03/01 05:11:33;;;;;;;29.35;17.35;;;230.80;2252.80;;;;;;5092457;28;20031;-74
2024/03/01 05:14:05;;;;;;;27.98;14.95;;;230.80;2252.80;;;;;;5093793;28;20028;-73
2024/03/01 05:16:31;;;;;;;29.80;16.58;;;230.80;2252.80;;;;;;5094049;28;20065;-74
2024/03/01 05:18:57;;;;;;;28.70;16.90;;;230.80;2252.80;;;;;;5112325;28;20055;-75
2024/03/01 05:21:23;;;;;;;27.55;15.20;;;230.80;2252.80;;;;;;5109743;28;20060;-74
2024/03/01 05:23:52;;;;;;;30.05;16.80;;;230.80;2252.80;;;;;;5094119;28;20045;-75
2024/03/01 05:26:18;;;;;;;31.30;15.45;;;230.70;2227.20;;;;;;5094594;28;20024;-73
2024/03/01 05:28:43;;;;;;;29.95;15.88;;;230.80;1971.20;;;;;;5090573;28;20020;-74
2024/03/01 05:31:09;;;;;;;27.48;14.52;;;230.80;2252.80;;;;;;5090783;28;20364;-74
2024/03/01 05:33:35;;;;;;;28.63;15.45;;;230.80;2252.80;;;;;;5094164;28;20051;-75
2024/03/01 05:36:05;;;;;;;28.45;14.07;;;230.80;2252.80;;;;;;5092831;28;20040;-73
2024/03/01 05:38:31;;;;;;;28.25;15.23;;;230.80;2252.80;;;;;;5094202;28;20340;-74
2024/03/01 05:40:58;;;;;;;26.98;15.13;;;230.80;2252.80;;;;;;5094345;28;20086;-74
2024/03/01 05:43:23;;;;;;;31.52;16.80;;;230.80;2252.80;;;;;;5093807;28;20530;-74
2024/03/01 05:45:52;;;;;;;29.88;16.55;;;230.80;2022.40;;;;;;5093141;28;20111;-74
2024/03/01 05:48:18;;;;;;;27.63;15.50;;;230.80;2048.00;;;;;;5091757;28;20446;-74
2024/03/01 05:50:43;;;;;;;26.27;15.48;;;230.80;2252.80;;;;;;5088010;28;20044;-74
2024/03/01 05:53:30;;;;;;;24.33;14.70;;;230.80;2252.80;;;;;;5093669;28;20093;-74
2024/03/01 05:55:55;;;;;;;27.50;15.30;;;230.80;2252.80;;;;;;5093315;28;20043;-74
2024/03/01 05:58:23;;;;;;;26.63;15.25;;;230.80;2252.80;;;;;;5104826;28;20027;-74
2024/03/01 06:00:51;;;;;;;25.83;15.00;;;230.90;2252.80;;;;;;5109867;28;20054;-75
2024/03/01 06:03:17;;;;;;;28.80;15.30;;;230.80;2252.80;;;;;;5093797;28;20016;-75
2024/03/01 06:05:43;;;;;;;23.63;13.80;;;230.80;2252.80;;;;;;5095268;28;20085;-74
2024/03/01 06:08:08;;;;;;;24.58;14.45;;;230.80;2252.80;;;;;;5087352;28;20027;-75
2024/03/01 06:10:34;;;;;;;29.15;15.57;;;230.80;2252.80;;;;;;5093033;28;20102;-74
2024/03/01 06:13:00;;;;;;;25.45;14.38;;;230.80;2252.80;;;;;;5101938;28;20020;-74
2024/03/01 06:15:27;;;;;;;27.65;15.95;;;230.80;1945.60;;;;;;5112986;28;20080;-73
2024/03/01 06:17:55;;;;;;;25.20;14.90;;;230.80;2252.80;;;;;;5113165;28;20024;-74
2024/03/01 06:20:21;;;;;;;24.10;13.50;;;230.80;2252.80;;;;;;5113319;28;20084;-75
2024/03/01 06:22:47;;;;;;;25.48;14.60;;;230.80;2252.80;;;;;;5109126;28;20099;-74
2024/03/01 06:25:12;;;;;;;28.45;14.82;;;230.90;2252.80;;;;;;5104816;28;20031;-74
2024/03/01 06:27:38;;;;;;;22.50;13.80;;;230.90;2252.80;;;;;;5088120;28;20046;-74
2024/03/01 06:30:06;;;;;;;24.70;13.70;;;230.90;2252.80;;;;;;5094884;28;20024;-71
2024/03/01 06:32:32;;;;;;;28.15;14.95;;;230.90;2252.80;;;;;;5083818;28;20025;-74
2024/03/01 06:34:58;;;;;;;27.33;14.10;;;230.90;2252.80;;;;;;5087594;28;20059;-75
2024/03/01 06:37:24;;;;;;;23.42;13.15;;;230.90;2252.80;;;;;;5108129;28;20106;-74
2024/03/01 06:39:49;;;;;;;23.90;13.43;;;231.00;2252.80;;;;;;5091682;28;20039;-74
2024/03/01 06:42:15;;;;;;;20.67;12.48;;;231.00;2252.80;;;;;;5108205;28;20450;-73
2024/03/01 06:44:41;;;;;;;23.00;13.40;;;231.00;2252.80;;;;;;5085422;28;20025;-74
2024/03/01 06:47:10;;;;;;;22.45;11.98;;;231.00;2252.80;;;;;;5089163;28;20022;-73
2024/03/01 06:49:36;;;;;;;20.75;12.73;;;231.00;2252.80;;;;;;5081888;28;20024;-72
2024/03/01 06:52:03;;;;;;;25.00;13.38;;;231.10;2252.80;;;;;;5086888;28;20758;-74
2024/03/01 06:54:32;;;;;;;23.17;12.93;;;231.20;2252.80;;;;;;5093518;28;20745;-74
2024/03/01 06:56:58;;;;;;;21.55;12.20;;;231.20;2252.80;;;;;;5096367;28;20024;-74
2024/03/01 06:59:24;;;;;;;21.25;12.23;;;231.20;2252.80;;;;;;5097470;28;20096;-74
2024/03/01 07:01:49;;;;;;;20.65;12.30;;;231.20;2252.80;;;;;;5097077;28;20131;-73
2024/03/01 07:04:15;;;;;;;26.30;14.98;;;256.00;2252.80;;;;;;5074185;28;20475;-74
2024/03/01 07:06:41;;;;;;;20.70;12.27;;;231.30;2252.80;;;;;;5059702;28;20476;-74
2024/03/01 07:09:06;;;;;;;20.83;11.82;;;256.00;2252.80;;;;;;5065027;28;20024;-74
2024/03/01 07:11:33;;;;;;;20.27;11.18;;;256.00;2252.80;;;;;;5068441;28;20020;-74
2024/03/01 07:13:58;;;;;;;20.98;11.27;;;256.10;2252.80;;;;;;5065519;28;20019;-75
2024/03/01 07:16:27;;;;;;;20.20;11.57;;;256.10;2252.80;;;;;;5081330;28;20028;-74
2024/03/01 07:18:53;;;;;;;18.13;10.93;;;256.20;2252.80;;;;;;5096751;28;20474;-74
2024/03/01 07:21:19;;;;;;;19.08;11.75;;;256.20;2252.80;;;;;;5096690;28;20115;-73
2024/03/01 07:23:45;;;;;;;19.50;12.18;;;256.30;2252.80;;;;;;5091052;28;20020;-75
2024/03/01 07:26:11;;;;;;;18.80;12.00;;;256.30;2252.80;;;;;;5070849;28;20039;-73
2024/03/01 07:28:36;;;;;;;20.05;11.77;;;256.30;2252.80;;;;;;5049131;28;20433;-75
2024/03/01 07:31:05;;;;;;;21.90;12.18;;;256.40;2252.80;;;;;;5058461;28;20116;-72
2024/03/01 07:33:30;;;;;;;20.63;12.88;;;256.40;2252.80;;;;;;5066339;28;20028;-73
2024/03/01 07:35:56;;;;;;;19.38;11.35;;;256.40;2252.80;;;;;;5060900;28;20028;-72
2024/03/01 07:38:22;;;;;;;20.90;12.10;;;256.90;2252.80;;;;;;5063489;28;20028;-72
2024/03/01 07:40:48;;;;;;;19.65;11.98;;;256.70;2252.80;;;;;;5094317;28;20394;-73
2024/03/01 07:43:14;;;;;;;22.65;12.48;;;256.70;2252.80;;;;;;5077609;28;20108;-73
2024/03/01 07:45:39;;;;;;;20.17;11.70;;;256.90;2252.80;;;;;;5079807;28;20020;-72
2024/03/01 07:48:06;;;;;;;20.52;11.57;;;256.80;2252.80;;;;;;5074557;28;20021;-71
2024/03/01 07:50:31;;;;;;;21.90;12.70;;;256.90;2252.80;;;;;;5094024;28;20028;-72
2024/03/01 07:52:58;;;;;;;18.77;11.32;;;281.70;2278.40;;;;;;5084461;28;20086;-72
2024/03/01 07:55:24;;;;;;;19.83;11.55;;;281.90;2278.40;;;;;;5065617;28;20058;-73
2024/03/01 07:57:50;;;;;;;23.95;14.80;;;282.10;2278.40;;;;;;5064492;28;20017;-71
2024/03/01 08:00:16;;;;;;;19.20;12.10;;;307.20;2304.00;;;;;;5049056;28;20491;-71
2024/03/01 08:02:42;;;;;;;19.92;12.00;;;307.70;2304.00;;;;;;5083699;28;20032;-73
2024/03/01 08:05:10;;;;;;;17.45;11.35;;;307.90;2304.00;;;;;;5081852;28;20017;-73
2024/03/01 08:07:36;;;;;;;17.70;11.55;;;333.10;2329.60;;;;;;5087748;28;20024;-72
2024/03/01 08:10:04;;;;;;;18.77;10.88;;;333.20;2329.60;;;;;;5085250;28;20025;-72
2024/03/01 08:12:29;;;;;;;17.65;11.00;;;333.00;2329.60;;;;;;5086348;28;20056;-72
2024/03/01 08:14:55;;;;;;;18.52;11.52;;;333.00;2329.60;;;;;;5086600;28;20502;-71
2024/03/01 08:17:21;;;;;;;20.45;12.45;;;333.10;2329.60;;;;;;5091675;28;20052;-73
2024/03/01 08:19:49;;;;;;;19.35;11.77;;;333.10;2329.60;;;;;;5086370;28;20052;-73
2024/03/01 08:22:19;;;;;;;22.42;11.85;;;332.90;2329.60;;;;;;5091433;28;20125;-70
2024/03/01 08:24:49;;;;;;;19.85;11.80;;;332.80;2329.60;;;;;;5088534;28;20008;-72
2024/03/01 08:27:25;;;;;;;17.75;11.70;;;332.80;2329.60;;;;;;5093443;28;20028;-72
2024/03/01 08:29:55;;;;;;;17.98;10.93;;;333.10;2329.60;;;;;;5083526;28;20016;-72
2024/03/01 08:32:30;;;;;;;17.73;10.65;;;333.30;2329.60;;;;;;5086547;28;20474;-74
2024/03/01 08:34:58;;;;;;;18.83;11.30;;;333.50;2329.60;;;;;;5083348;28;20059;-73
2024/03/01 08:37:27;;;;;;;18.10;10.52;;;358.70;2329.60;;;;;;5084033;28;20458;-72
2024/03/01 08:39:53;;;;;;;17.42;10.85;;;359.30;2329.60;;;;;;5093659;28;20024;-72
2024/03/01 08:42:20;;;;;;;20.88;10.85;;;384.00;2329.60;;;;;;5094025;28;20020;-72
2024/03/01 08:44:54;;;;;;;15.60;10.30;;;384.60;2329.60;;;;;;5088189;28;20020;-73
2024/03/01 08:47:25;;;;;;;16.80;9.87;;;384.20;2329.60;;;;;;5087671;28;20020;-71
2024/03/01 08:49:53;;;;;;;18.33;10.32;;;359.30;2329.60;;;;;;5070590;28;20395;-71
2024/03/01 08:52:32;;;;;;;16.63;9.02;;;358.90;2329.60;;;;;;5083932;28;20032;-71
2024/03/01 08:55:10;;;;;;;18.42;11.27;;;358.80;2329.60;;;;;;5100380;28;20379;-71
2024/03/01 08:57:37;;;;;;;17.73;10.13;;;359.10;2329.60;;;;;;5115490;28;20028;-72
2024/03/01 09:00:26;;;;;;;18.58;10.32;;;359.10;2329.60;;;;;;5114025;28;20035;-73
2024/03/01 09:02:53;;;;;;;17.73;10.43;;;359.10;2329.60;;;;;;5113860;28;20058;-72
2024/03/01 09:05:21;;;;;;;18.13;10.43;;;359.10;2329.60;;;;;;5113598;28;20016;-73
2024/03/01 09:07:47;;;;;;;16.50;10.02;;;358.90;2329.60;;;;;;5114726;28;20012;-73
2024/03/01 09:10:33;;;;;;;17.00;10.40;;;358.90;2329.60;;;;;;5112158;28;20024;-72
2024/03/01 09:13:01;;;;;;;16.25;10.35;;;359.00;2329.60;;;;;;5109872;28;20020;-72
2024/03/01 09:15:36;;;;;;;18.25;10.15;;;359.00;2329.60;;;;;;5108240;28;20024;-73
2024/03/01 09:18:02;;;;;;;;;;;358.90;2329.60;;;;;;5094302;28;20027;-70
2024/03/01 09:20:35;;;;;;;17.60;9.98;;;359.00;2329.60;;;;;;5090806;28;19912;-72
2024/03/01 09:23:07;;;;;;;29.25;16.60;;;359.00;2329.60;;;;;;5094198;28;20024;-72
2024/03/01 09:25:47;;;;;;;19.00;10.77;;;359.30;2329.60;;;;;;5094331;28;20102;-73
2024/03/01 09:28:20;;;;;;;17.48;9.70;;;384.00;2329.60;;;;;;5093255;28;20027;-72
2024/03/01 09:30:51;;;;;;;18.83;11.32;;;384.00;2329.60;;;;;;5093888;28;20520;-73
2024/03/01 09:33:18;;;;;;;16.05;9.93;;;384.30;2329.60;;;;;;5086296;28;20029;-72
2024/03/01 09:35:44;;;;;;;23.17;12.43;;;384.30;2329.60;;;;;;5083197;28;20024;-71
2024/03/01 09:38:13;;;;;;;35.70;17.08;;;384.80;2329.60;;;;;;5094262;28;20031;-72
2024/03/01 09:40:52;;;;;;;24.17;15.27;;;384.40;2329.60;;;;;;5093581;28;20115;-72
2024/03/01 09:43:23;;;;;;;20.05;13.07;;;384.60;2329.60;;;;;;5090970;28;20402;-73
2024/03/01 09:45:51;;;;;;;43.95;26.38;;;384.70;2329.60;;;;;;5092111;28;20028;-72
2024/03/01 09:48:42;;;;;;;23.42;13.02;;;409.60;2355.20;;;;;;5093378;28;20028;-72
2024/03/01 09:51:33;;;;;;;25.95;13.02;;;409.60;2355.20;;;;;;5093697;28;20020;-72
2024/03/01 09:54:12;;;;;;;19.88;9.93;;;409.70;2355.20;;;;;;5093792;28;20371;-71
2024/03/01 09:57:05;;;;;;;17.42;9.95;;;409.70;2355.20;;;;;;5093236;28;20032;-71
2024/03/01 10:00:18;;;;;;;25.90;13.57;;;409.80;2355.20;;;;;;5093473;28;20024;-72
2024/03/01 10:02:58;;;;;;;21.15;9.20;;;410.40;2355.20;;;;;;5027841;28;20282;-72
2024/03/01 10:05:26;;;;;;;19.88;12.32;;;436.00;2304.00;;;;;;5028649;28;20108;-71
2024/03/01 10:08:33;;;;;;;18.88;11.27;;;436.00;2304.00;;;;;;5036435;28;20096;-72
2024/03/01 10:11:17;;;;;;;13.93;9.02;;;461.00;2252.80;;;;;;5036767;28;20111;-72
2024/03/01 10:13:57;;;;;;;20.63;11.32;;;;;;;;;;5049088;28;20438;-70
2024/03/01 10:16:42;;;;;;;17.20;10.02;;;;;;;;;;5048729;28;20025;-70
2024/03/01 10:19:14;;;;;;;24.63;13.60;;;;;;;;;;5022435;28;20072;-71
2024/03/01 10:21:57;;;;;;;23.90;11.65;;;;;;;;;;5050327;28;20068;-72
2024/03/01 10:24:35;;;;;;;16.17;9.68;;;;;;;;;;5037330;28;20432;-72
2024/03/01 10:27:01;;;;;;;15.80;8.75;;;;;;;;;;5030413;28;20140;-72
2024/03/01 10:29:33;;;;;;;19.13;11.18;;;;;;;;;;5030585;28;20025;-72
2024/03/01 10:32:22;;;;;;;15.80;9.70;;;435.90;2201.60;;;;;;5034586;28;20041;-72
2024/03/01 10:35:17;;;;;;;14.65;7.70;;;435.50;2252.80;;;;;;5051866;28;20025;-72
2024/03/01 10:37:42;;;;;;;16.77;9.68;;;435.30;2252.80;;;;;;5042983;28;20029;-73
2024/03/01 10:40:20;;;;;;;30.15;15.88;;;435.30;2278.40;;;;;;5088431;28;20160;-72
2024/03/01 10:43:11;;;;;;;17.45;10.57;;;435.40;2227.20;;;;;;5095554;28;20036;-72
2024/03/01 10:45:52;;;;;;;15.30;9.15;;;435.40;2227.20;;;;;;5066422;28;20024;-72
2024/03/01 10:48:17;;;;;;;16.23;8.95;;;435.40;2201.60;;;;;;5094955;28;20788;-72
2024/03/01 10:50:50;;;;;;;23.88;11.98;;;435.40;2201.60;;;;;;5089060;28;20034;-72
2024/03/01 10:53:31;;;;;;;13.27;8.50;;;435.80;2201.60;;;;;;5093242;28;20025;-71
2024/03/01 10:56:04;;;;;;;19.92;11.80;;;435.90;2150.40;;;;;;5098629;28;20020;-71
2024/03/01 10:58:49;;;;;;;13.25;7.60;;;460.80;2176.00;;;;;;5106375;28;20027;-72
2024/03/01 11:01:40;;;;;;;13.88;7.43;;;460.80;2150.40;;;;;;5079459;28;20049;-72
2024/03/01 11:04:06;;;;;;;16.17;8.55;;;436.00;2150.40;;;;;;5068883;28;20037;-72
2024/03/01 11:06:44;;;;;;;14.82;8.98;;;435.90;2150.40;;;;;;5060809;28;20392;-71
2024/03/01 11:09:36;;;;;;;17.77;11.63;;;435.70;2176.00;;;;;;5055345;28;20159;-72
2024/03/01 11:12:34;;;;;;;18.55;9.63;;;435.80;2201.60;;;;;;5037029;28;20448;-71
2024/03/01 11:15:13;;;;;;;19.48;10.65;;;436.00;2176.00;;;;;;5069850;28;20044;-72
2024/03/01 11:17:41;;;;;;;95.95;43.85;;;435.80;2201.60;;;;;;5057413;28;20075;-71
2024/03/01 11:20:23;;;;;;;23.40;12.65;;;435.80;2201.60;;;;;;5064748;28;20037;-71
2024/03/01 11:23:18;;;;;;;21.63;13.27;;;435.80;2176.00;;;;;;5059589;28;20082;-70
2024/03/01 11:26:11;;;;;;;18.48;10.10;;;435.70;2201.60;;;;;;5013011;28;20173;-73
2024/03/01 11:28:40;;;;;;;25.75;12.63;;;435.70;2201.60;;;;;;5010026;28;20034;-71
2024/03/01 11:31:21;;;;;;;12.82;7.30;;;435.60;2201.60;;;;;;5011536;28;20045;-72
2024/03/01 11:33:48;;;;;;;11.38;7.18;;;435.70;2176.00;;;;;;5012436;28;20037;-71
2024/03/01 11:36:52;;;;;;;25.75;11.88;;;435.70;2176.00;;;;;;5012922;28;20624;-71
2024/03/01 11:39:48;;;;;;;10.90;6.78;;;435.80;2176.00;;;;;;4954322;29;20099;-72
2024/03/01 11:42:35;;;;;;;14.68;7.30;;;435.80;2150.40;;;;;;4953546;28;20450;-71
2024/03/01 11:45:15;;;;;;;16.02;8.20;;;436.00;2124.80;;;;;;4953451;28;20513;-72
2024/03/01 11:47:50;;;;;;;20.33;10.73;;;436.00;2124.80;;;;;;4952324;28;20045;-71
2024/03/01 11:50:43;;;;;;;25.20;11.40;;;436.00;2176.00;;;;;;4953721;29;20036;-72
2024/03/01 11:53:15;;;;;;;14.45;8.10;;;460.80;2176.00;;;;;;4954461;29;20046;-73
2024/03/01 11:55:56;;;;;;;19.98;11.48;;;461.30;2124.80;;;;;;4954241;29;20125;-72
2024/03/01 11:58:40;;;;;;;33.75;18.80;;;461.40;2073.60;;;;;;4954104;29;20062;-71
2024/03/01 12:01:10;;;;;;;31.58;17.58;;;486.60;1996.80;;;;;;4962900;28;20078;-71
2024/03/01 12:03:56;;;;;;;14.05;8.50;;;;;;;;;;4988568;28;20445;-73
2024/03/01 12:06:31;;;;;;;16.38;10.75;;;;;;;;;;4963931;28;20506;-72
2024/03/01 12:08:57;;;;;;;;;;;;;;;;;;4969775;28;20121;-71
2024/03/01 12:11:26;;;;;;;13.73;8.27;;;;;;;;;;4973156;28;20070;-73
2024/03/01 12:13:58;;;;;;;16.17;10.00;;;;;;;;;;5020111;28;20084;-73
2024/03/01 12:16:40;;;;;;;14.43;8.82;;;;;;;;;;5024316;28;20037;-72
2024/03/01 12:19:38;;;;;;;15.68;10.57;;;;;;;;;;5049374;28;20606;-72